Time;durP1;ratioP1;P1;durP2;ratioP2;P2;SDS_P1;SDS_P2;PMS_P1;PMS_P2;Temp;Humidity;BMP_temperature;BMP_pressure;BME280_temperature;BME280_humidity;BME280_pressure;Samples;Min_cycle;Max_cycle;Signal;HPM_P1;HPM_P2
2024/01/23 00:00:50;;;;;;;4.05;1.77;;;;;;;38.93;18.40;99874.84;7393482;19;20066;-86
2024/01/23 00:03:16;;;;;;;4.80;0.95;;;;;;;39.56;18.08;99878.44;7394346;19;20018;-86
2024/01/23 00:05:43;;;;;;;0.77;0.77;;;;;;;39.53;18.07;99868.09;7394763;19;20025;-85
2024/01/23 00:08:09;;;;;;;20.45;1.60;;;;;;;39.24;18.41;99874.47;7398926;19;20472;-86
2024/01/23 00:10:35;;;;;;;0.50;0.40;;;;;;;39.15;18.37;99867.63;7394799;19;20022;-86
2024/01/23 00:13:01;;;;;;;11.25;2.15;;;;;;;38.84;18.33;99867.25;7395017;19;20081;-86
2024/01/23 00:15:27;;;;;;;4.43;1.20;;;;;;;39.07;18.21;99861.47;7393432;19;20011;-86
2024/01/23 00:17:53;;;;;;;3.08;1.67;;;;;;;38.19;18.57;99870.72;7397177;19;20035;-86
2024/01/23 00:20:19;;;;;;;1.75;1.05;;;;;;;37.91;18.46;99879.13;7392513;19;20046;-86
2024/01/23 00:22:45;;;;;;;1.13;0.93;;;;;;;37.68;18.72;99882.59;7397761;19;20015;-87
2024/01/23 00:25:12;;;;;;;5.32;1.42;;;;;;;38.03;18.32;99875.97;7396694;19;20102;-87
2024/01/23 00:27:38;;;;;;;0.38;0.38;;;;;;;37.60;18.55;99885.16;7397268;19;20025;-87
2024/01/23 00:30:04;;;;;;;0.40;0.40;;;;;;;37.64;18.44;99875.88;7393835;19;20015;-87
2024/01/23 00:32:30;;;;;;;6.47;1.30;;;;;;;38.73;18.38;99891.59;7396847;19;20487;-87
2024/01/23 00:34:58;;;;;;;6.15;1.30;;;;;;;38.28;18.18;99884.19;7393266;19;20371;-87
2024/01/23 00:37:25;;;;;;;7.57;0.80;;;;;;;37.97;18.30;99881.53;7392867;19;20014;-87
2024/01/23 00:39:52;;;;;;;1.98;1.85;;;;;;;38.30;18.47;99898.81;7395747;19;20052;-87
2024/01/23 00:42:18;;;;;;;0.63;0.45;;;;;;;37.79;18.74;99880.81;7394118;19;20010;-87
2024/01/23 00:44:44;;;;;;;3.85;1.40;;;;;;;37.05;18.91;99888.00;7390904;19;20022;-87
2024/01/23 00:47:12;;;;;;;3.20;1.52;;;;;;;36.64;19.42;99881.84;7397331;19;20030;-87
2024/01/23 00:49:38;;;;;;;9.43;2.00;;;;;;;37.32;18.74;99889.06;7393340;19;20025;-87
2024/01/23 00:52:04;;;;;;;0.35;0.35;;;;;;;37.42;18.82;99881.53;7394853;19;20015;-87
2024/01/23 00:54:30;;;;;;;3.60;0.60;;;;;;;37.46;18.57;99878.03;7388554;19;20023;-87
2024/01/23 00:56:57;;;;;;;15.38;1.35;;;;;;;37.24;19.03;99887.34;7389576;19;20047;-87
2024/01/23 00:59:23;;;;;;;0.20;0.20;;;;;;;37.29;18.55;99894.06;7390876;19;20023;-87
2024/01/23 01:01:49;;;;;;;0.73;0.73;;;;;;;36.88;19.15;99909.03;7387804;19;20022;-87
2024/01/23 01:04:15;;;;;;;1.85;0.90;;;;;;;36.73;18.75;99897.47;7392043;19;20018;-87
2024/01/23 01:06:41;;;;;;;14.02;0.65;;;;;;;36.39;19.27;99894.50;7390530;19;20010;-86
2024/01/23 01:09:07;;;;;;;0.95;0.52;;;;;;;36.81;18.77;99910.16;7391011;19;20511;-87
2024/01/23 01:11:33;;;;;;;0.25;0.25;;;;;;;37.78;18.38;99905.47;7390429;19;20028;-86
2024/01/23 01:14:00;;;;;;;0.47;0.13;;;;;;;38.09;18.05;99908.19;7391767;19;20029;-87
2024/01/23 01:16:26;;;;;;;11.88;1.55;;;;;;;37.95;18.08;99908.38;7391158;19;20512;-87
2024/01/23 01:18:53;;;;;;;0.38;0.38;;;;;;;38.02;18.06;99909.34;7391130;19;20014;-87
2024/01/23 01:21:19;;;;;;;2.35;0.88;;;;;;;37.71;18.22;99924.09;7390895;19;20311;-87
2024/01/23 01:23:45;;;;;;;0.10;0.10;;;;;;;37.89;18.26;99919.03;7389225;19;20015;-86
2024/01/23 01:26:11;;;;;;;5.50;0.47;;;;;;;38.03;17.95;99939.19;7392270;19;20024;-87
2024/01/23 01:28:38;;;;;;;4.93;1.40;;;;;;;38.22;17.91;99939.22;7386848;19;20373;-87
2024/01/23 01:31:04;;;;;;;3.20;0.98;;;;;;;38.15;17.82;99957.84;7385957;19;20041;-87
2024/01/23 01:33:30;;;;;;;0.10;0.10;;;;;;;37.96;17.85;99958.56;7383509;19;20018;-91
2024/01/23 01:35:56;;;;;;;0.15;0.15;;;;;;;37.88;18.02;99967.00;7388132;19;20033;-89
2024/01/23 01:38:23;;;;;;;0.95;0.95;;;;;;;38.29;17.49;99972.97;7391066;19;20361;-88
2024/01/23 01:40:49;;;;;;;3.65;1.13;;;;;;;38.22;17.62;99979.97;7383672;19;20413;-85
2024/01/23 01:43:30;;;;;;;0.25;0.22;;;;;;;38.27;17.46;99981.63;7384831;19;20487;-85
2024/01/23 01:46:09;;;;;;;0.28;0.28;;;;;;;38.06;17.90;99985.13;7388127;19;20078;-86
2024/01/23 01:48:35;;;;;;;0.55;0.40;;;;;;;38.22;17.64;99985.78;7393605;19;20026;-86
2024/01/23 01:51:01;;;;;;;0.35;0.17;;;;;;;38.06;18.04;99990.97;7395667;19;20349;-86
2024/01/23 01:53:27;;;;;;;6.22;0.65;;;;;;;38.29;17.51;99987.50;7242438;19;2886274;-86
2024/01/23 01:55:53;;;;;;;8.55;1.23;;;;;;;38.09;17.59;99978.00;7390592;19;20074;-86
2024/01/23 01:58:23;;;;;;;1.40;0.50;;;;;;;38.32;17.67;99971.63;7389749;19;20037;-86
2024/01/23 02:00:50;;;;;;;1.27;0.35;;;;;;;37.62;18.12;99971.72;7389349;19;20055;-85
2024/01/23 02:03:17;;;;;;;0.50;0.40;;;;;;;36.87;18.51;99985.16;7393635;19;20022;-85
2024/01/23 02:05:43;;;;;;;0.95;0.70;;;;;;;37.97;17.68;99988.41;7391204;19;20480;-85
2024/01/23 02:08:10;;;;;;;0.45;0.40;;;;;;;38.51;17.74;99981.78;7390703;19;20464;-85
2024/01/23 02:10:36;;;;;;;7.32;0.95;;;;;;;38.79;17.31;99991.59;7390822;19;20014;-85
2024/01/23 02:13:02;;;;;;;0.32;0.32;;;;;;;38.49;17.53;100002.84;7390086;19;20338;-86
2024/01/23 02:15:30;;;;;;;4.38;0.80;;;;;;;38.41;17.59;99999.63;7395987;19;20047;-85
2024/01/23 02:17:56;;;;;;;0.85;0.85;;;;;;;38.57;17.61;99999.50;7390708;19;20015;-86
2024/01/23 02:20:22;;;;;;;8.38;0.77;;;;;;;38.41;17.80;100007.59;7389200;19;20652;-86
2024/01/23 02:22:49;;;;;;;3.40;0.40;;;;;;;37.75;17.73;100008.59;7387956;19;20027;-85
2024/01/23 02:25:15;;;;;;;1.40;0.55;;;;;;;38.13;17.59;100018.88;7390104;19;20089;-86
2024/01/23 02:27:41;;;;;;;0.70;0.25;;;;;;;38.34;17.38;100015.38;7395235;19;20014;-86
2024/01/23 02:30:08;;;;;;;0.17;0.17;;;;;;;38.34;17.27;100020.44;7391059;19;20530;-86
2024/01/23 02:32:34;;;;;;;0.10;0.10;;;;;;;37.69;17.74;100011.22;7390654;19;20411;-86
2024/01/23 02:35:00;;;;;;;1.67;0.95;;;;;;;37.06;18.08;100023.09;7393140;19;20023;-87
2024/01/23 02:37:26;;;;;;;0.55;0.55;;;;;;;37.19;18.24;100042.53;7389436;19;20043;-87
2024/01/23 02:39:53;;;;;;;0.43;0.43;;;;;;;36.81;17.89;100045.88;7390331;19;20113;-87
2024/01/23 02:42:19;;;;;;;1.35;0.25;;;;;;;36.76;18.15;100044.94;7388655;19;20495;-86
2024/01/23 02:44:45;;;;;;;0.40;0.40;;;;;;;36.75;18.14;100042.69;7387150;19;20515;-86
2024/01/23 02:47:12;;;;;;;5.15;1.48;;;;;;;36.93;17.98;100055.91;7390611;19;20018;-86
2024/01/23 02:49:38;;;;;;;10.63;0.50;;;;;;;36.68;17.97;100062.00;7391251;19;20484;-86
2024/01/23 02:52:04;;;;;;;7.32;0.73;;;;;;;37.04;18.00;100060.75;7390363;19;20017;-86
2024/01/23 02:54:31;;;;;;;2.13;1.48;;;;;;;36.84;17.96;100054.00;7388908;19;20021;-87
2024/01/23 02:56:58;;;;;;;1.33;1.27;;;;;;;36.05;18.27;100057.50;7389845;19;20018;-86
2024/01/23 02:59:24;;;;;;;0.68;0.68;;;;;;;35.85;18.82;100051.44;7390487;19;20078;-86
2024/01/23 03:01:50;;;;;;;0.30;0.30;;;;;;;35.47;18.72;100061.06;7387011;19;20051;-86
2024/01/23 03:04:16;;;;;;;1.55;1.05;;;;;;;33.06;19.91;100085.69;7388621;19;20413;-86
2024/01/23 03:06:42;;;;;;;9.75;1.20;;;;;;;33.88;19.61;100090.66;7393097;19;20010;-86
2024/01/23 03:09:13;;;;;;;18.02;1.15;;;;;;;33.32;19.80;100084.41;7390421;19;20028;-86
2024/01/23 03:11:40;;;;;;;0.70;0.57;;;;;;;34.92;18.96;100075.56;7390662;19;20034;-87
2024/01/23 03:14:06;;;;;;;8.57;1.75;;;;;;;36.66;18.44;100076.41;7389052;19;20078;-86
2024/01/23 03:16:32;;;;;;;0.10;0.10;;;;;;;36.99;18.03;100088.13;7390753;19;20018;-86
2024/01/23 03:18:59;;;;;;;0.40;0.20;;;;;;;37.08;18.29;100095.78;7389290;19;20034;-86
2024/01/23 03:21:25;;;;;;;0.15;0.15;;;;;;;36.93;18.15;100096.56;7384435;19;20044;-86
2024/01/23 03:23:51;;;;;;;3.92;1.55;;;;;;;36.37;18.40;100088.81;7389126;19;20014;-86
2024/01/23 03:26:17;;;;;;;0.52;0.52;;;;;;;36.54;18.43;100099.06;7388895;19;20041;-86
2024/01/23 03:28:44;;;;;;;0.20;0.20;;;;;;;36.34;18.45;100093.00;7388585;19;20038;-87
2024/01/23 03:31:10;;;;;;;0.60;0.47;;;;;;;36.45;18.14;100082.69;7388126;19;20019;-86
2024/01/23 03:33:36;;;;;;;7.43;1.30;;;;;;;36.39;18.68;100088.16;7394022;19;20014;-86
2024/01/23 03:36:03;;;;;;;1.15;0.50;;;;;;;35.99;18.28;100106.50;7392216;19;20295;-86
2024/01/23 03:38:29;;;;;;;1.67;0.75;;;;;;;36.01;18.45;100098.66;7389069;19;20014;-87
2024/01/23 03:40:55;;;;;;;3.00;1.70;;;;;;;35.93;18.64;100100.38;7389643;19;20021;-87
2024/01/23 03:43:23;;;;;;;0.20;0.20;;;;;;;35.69;18.54;100109.34;7388831;19;20022;-87
2024/01/23 03:45:49;;;;;;;12.98;1.70;;;;;;;35.53;18.86;100101.97;7389483;19;20026;-87
2024/01/23 03:48:15;;;;;;;13.45;0.75;;;;;;;35.44;18.44;100097.13;7391884;19;20089;-86
2024/01/23 03:50:41;;;;;;;1.92;0.73;;;;;;;35.42;18.77;100109.38;7389076;19;20017;-86
2024/01/23 03:53:07;;;;;;;0.20;0.20;;;;;;;34.69;18.84;100109.75;7388207;19;20007;-87
2024/01/23 03:55:33;;;;;;;1.65;0.75;;;;;;;34.51;19.02;100100.81;7390441;19;20051;-86
2024/01/23 03:57:59;;;;;;;9.10;0.82;;;;;;;34.69;18.86;100098.16;7394576;19;20671;-86
2024/01/23 04:00:28;;;;;;;1.00;0.40;;;;;;;34.62;18.87;100105.00;7394576;19;20102;-86
2024/01/23 04:02:55;;;;;;;1.58;0.43;;;;;;;34.02;19.16;100096.53;7394461;19;20025;-86
2024/01/23 04:05:21;;;;;;;1.25;0.73;;;;;;;34.11;18.88;100102.13;7395687;19;20447;-86
2024/01/23 04:07:48;;;;;;;0.40;0.40;;;;;;;34.48;18.88;100099.16;7397692;19;20027;-86
2024/01/23 04:10:14;;;;;;;1.45;0.43;;;;;;;34.41;18.68;100108.16;7395470;19;20011;-87
2024/01/23 04:12:41;;;;;;;10.50;0.90;;;;;;;34.73;18.65;100115.75;7394158;19;20509;-86
2024/01/23 04:15:08;;;;;;;28.67;2.80;;;;;;;35.24;18.55;100122.16;7393566;19;20353;-86
2024/01/23 04:17:34;;;;;;;0.43;0.43;;;;;;;35.21;18.48;100111.84;7397441;19;20048;-86
2024/01/23 04:20:00;;;;;;;1.17;0.85;;;;;;;34.11;19.05;100118.75;7394232;19;20422;-86
2024/01/23 04:22:26;;;;;;;0.35;0.35;;;;;;;33.48;19.58;100125.81;7395594;19;20026;-86
2024/01/23 04:24:52;;;;;;;0.90;0.63;;;;;;;33.76;19.15;100115.97;7394128;19;20023;-86
2024/01/23 04:27:19;;;;;;;1.48;1.25;;;;;;;34.23;19.17;100113.66;7397942;19;20022;-86
2024/01/23 04:29:45;;;;;;;0.17;0.17;;;;;;;34.79;18.62;100121.88;7394130;19;20010;-85
2024/01/23 04:32:11;;;;;;;0.20;0.20;;;;;;;35.03;18.63;100111.63;7392892;19;20011;-86
2024/01/23 04:34:37;;;;;;;3.05;0.68;;;;;;;35.00;18.28;100102.09;7393373;19;20030;-86
2024/01/23 04:37:03;;;;;;;9.90;1.15;;;;;;;34.54;18.57;100111.13;7394640;19;20026;-86
2024/01/23 04:39:29;;;;;;;0.93;0.57;;;;;;;34.47;18.55;100117.16;7394356;19;20018;-86
2024/01/23 04:41:55;;;;;;;0.20;0.20;;;;;;;34.27;18.92;100117.53;7391437;19;20018;-86
2024/01/23 04:44:22;;;;;;;0.28;0.28;;;;;;;34.04;18.91;100129.22;7391625;19;20022;-86
2024/01/23 04:46:48;;;;;;;1.65;1.10;;;;;;;34.17;18.67;100130.66;7395329;19;20039;-86
2024/01/23 04:49:14;;;;;;;31.15;1.70;;;;;;;35.39;17.50;100133.09;7391702;19;20028;-86
2024/01/23 04:51:40;;;;;;;0.32;0.32;;;;;;;35.23;18.10;100123.53;7393922;19;20010;-86
2024/01/23 04:54:06;;;;;;;0.20;0.20;;;;;;;35.21;17.98;100123.44;7392578;19;20019;-86
2024/01/23 04:56:32;;;;;;;0.68;0.40;;;;;;;34.97;18.29;100111.28;7395273;19;20356;-86
2024/01/23 04:58:58;;;;;;;0.75;0.30;;;;;;;35.09;18.44;100111.22;7395680;19;20562;-86
2024/01/23 05:01:25;;;;;;;0.20;0.20;;;;;;;33.73;18.48;100102.78;7391141;19;20014;-86
2024/01/23 05:03:51;;;;;;;1.27;0.90;;;;;;;33.74;18.80;100104.31;7392548;19;20022;-86
2024/01/23 05:06:17;;;;;;;10.95;1.40;;;;;;;33.78;19.11;100107.41;7393573;19;20033;-86
2024/01/23 05:08:43;;;;;;;0.20;0.20;;;;;;;33.84;19.09;100110.66;7392947;19;20338;-86
2024/01/23 05:11:09;;;;;;;0.25;0.25;;;;;;;34.03;18.56;100113.25;7393785;19;20011;-86
2024/01/23 05:13:35;;;;;;;8.88;0.40;;;;;;;33.82;18.55;100115.56;7390833;19;20029;-86
2024/01/23 05:16:01;;;;;;;1.77;0.63;;;;;;;32.68;19.47;100112.91;7394080;19;20016;-85
2024/01/23 05:18:28;;;;;;;1.95;0.75;;;;;;;33.41;19.01;100115.28;7397604;19;20046;-86
2024/01/23 05:20:54;;;;;;;0.45;0.30;;;;;;;33.62;18.84;100123.78;7390399;19;20051;-86
2024/01/23 05:23:20;;;;;;;2.70;0.38;;;;;;;33.51;19.10;100113.78;7390358;19;20597;-86
2024/01/23 05:25:46;;;;;;;1.88;0.45;;;;;;;33.40;19.29;100116.66;7392214;19;20015;-86
2024/01/23 05:28:12;;;;;;;0.52;0.52;;;;;;;33.37;19.41;100120.81;7395716;19;20010;-86
2024/01/23 05:30:38;;;;;;;4.15;0.77;;;;;;;33.39;19.19;100106.50;7392497;19;20341;-86
2024/01/23 05:33:04;;;;;;;0.40;0.40;;;;;;;33.46;19.35;100105.47;7393768;19;20031;-86
2024/01/23 05:35:30;;;;;;;0.65;0.43;;;;;;;33.15;19.49;100107.91;7393127;19;20019;-86
2024/01/23 05:37:57;;;;;;;1.05;0.95;;;;;;;33.80;19.33;100104.66;7395054;19;20445;-86
2024/01/23 05:40:23;;;;;;;0.20;0.20;;;;;;;34.79;19.16;100110.28;7390335;19;20036;-87
2024/01/23 05:42:49;;;;;;;0.10;0.05;;;;;;;35.15;18.53;100109.38;7390906;19;20991;-86
2024/01/23 05:45:16;;;;;;;0.47;0.47;;;;;;;35.46;18.53;100117.50;7391885;19;20022;-86
2024/01/23 05:47:42;;;;;;;0.90;0.45;;;;;;;35.47;18.74;100114.00;7394957;19;20468;-86
2024/01/23 05:50:08;;;;;;;5.60;0.35;;;;;;;35.54;18.62;100092.63;7391566;19;20014;-86
2024/01/23 05:52:35;;;;;;;0.45;0.45;;;;;;;35.69;18.93;100094.84;7390313;19;20014;-86
2024/01/23 05:55:03;;;;;;;0.20;0.20;;;;;;;34.63;19.25;100089.16;7390747;19;20497;-86
2024/01/23 05:57:29;;;;;;;3.17;0.70;;;;;;;34.50;19.54;100087.72;7395135;19;20037;-86
2024/01/23 05:59:56;;;;;;;1.58;0.32;;;;;;;34.41;19.50;100070.53;7391601;19;20015;-86
2024/01/23 06:02:22;;;;;;;0.22;0.22;;;;;;;34.69;19.50;100080.81;7390927;19;20109;-86
2024/01/23 06:04:48;;;;;;;0.10;0.10;;;;;;;33.72;19.82;100092.63;7392203;19;20011;-86
2024/01/23 06:07:14;;;;;;;0.15;0.13;;;;;;;33.35;20.42;100089.66;7393924;19;20038;-86
2024/01/23 06:09:42;;;;;;;12.88;0.88;;;;;;;33.33;20.15;100092.44;7391002;19;20025;-86
2024/01/23 06:12:08;;;;;;;0.32;0.32;;;;;;;32.44;20.95;100100.56;7391224;19;20400;-85
2024/01/23 06:14:34;;;;;;;0.20;0.20;;;;;;;32.89;20.60;100101.25;7390969;19;20046;-86
2024/01/23 06:17:00;;;;;;;0.28;0.28;;;;;;;33.60;20.54;100095.53;7390191;19;20022;-86
2024/01/23 06:19:26;;;;;;;1.95;1.38;;;;;;;34.64;19.74;100085.63;7393887;19;20018;-86
2024/01/23 06:21:52;;;;;;;0.30;0.30;;;;;;;35.26;19.45;100073.75;7387624;19;20357;-86
2024/01/23 06:24:19;;;;;;;0.95;0.70;;;;;;;34.76;20.07;100073.97;7388963;19;20018;-86
2024/01/23 06:26:45;;;;;;;1.20;0.47;;;;;;;34.62;20.12;100076.06;7390074;19;20014;-86
2024/01/23 06:29:11;;;;;;;3.33;2.08;;;;;;;35.74;19.54;100073.38;7392550;19;20367;-86
2024/01/23 07:06:05;;;;;;;2.45;1.05;;;;;;;34.10;25.25;100021.81;7269795;19;3047349;-50
2024/01/23 07:08:31;;;;;;;3.03;2.17;;;;;;;34.62;24.25;100015.31;7434230;19;20031;-49
2024/01/23 07:10:57;;;;;;;0.82;0.82;;;;;;;34.88;23.91;100016.72;7429308;19;20492;-50
2024/01/23 07:13:23;;;;;;;0.60;0.60;;;;;;;35.23;23.38;100001.91;7428533;19;20085;-51
2024/01/23 07:15:50;;;;;;;0.20;0.20;;;;;;;35.40;23.14;99984.69;7433830;19;20010;-50
2024/01/23 07:18:16;;;;;;;1.67;0.77;;;;;;;35.50;22.64;99988.13;7430525;19;20011;-58
2024/01/23 07:20:42;;;;;;;0.28;0.28;;;;;;;35.36;22.52;99995.31;7428356;19;20016;-49
2024/01/23 07:23:08;;;;;;;0.35;0.35;;;;;;;35.11;22.36;99990.44;7427785;19;20014;-50
2024/01/23 07:25:34;;;;;;;0.20;0.20;;;;;;;34.96;22.57;99979.50;7429261;19;20027;-50
2024/01/23 07:28:00;;;;;;;0.55;0.55;;;;;;;34.79;22.68;99975.00;7429664;19;20006;-50
2024/01/23 07:30:27;;;;;;;0.50;0.50;;;;;;;34.62;22.44;99974.81;7427873;19;20366;-50
2024/01/23 07:32:53;;;;;;;1.65;1.13;;;;;;;34.71;22.57;99963.03;7428335;19;20032;-50
2024/01/23 07:35:19;;;;;;;5.32;1.77;;;;;;;34.81;22.69;99951.22;7427900;19;20006;-50
2024/01/23 07:37:45;;;;;;;0.22;0.22;;;;;;;34.75;22.34;99948.00;7431389;19;20327;-50
2024/01/23 07:40:11;;;;;;;0.73;0.73;;;;;;;34.44;22.53;99956.47;7432806;19;20010;-50
2024/01/23 07:42:38;;;;;;;1.42;1.38;;;;;;;34.26;22.58;99953.34;7431989;19;20013;-50
2024/01/23 07:45:05;;;;;;;3.75;0.52;;;;;;;34.33;22.55;99946.47;7431492;19;20069;-50
2024/01/23 07:47:31;;;;;;;19.70;1.77;;;;;;;34.01;22.63;99936.03;7430392;19;20014;-50
2024/01/23 07:49:57;;;;;;;0.38;0.30;;;;;;;33.87;22.57;99936.00;7432685;19;20018;-50
2024/01/23 07:52:23;;;;;;;23.70;1.25;;;;;;;33.81;22.54;99926.97;7434658;19;20006;-50
2024/01/23 07:54:50;;;;;;;3.88;0.65;;;;;;;33.80;22.51;99916.81;7429322;19;20078;-50
2024/01/23 07:57:16;;;;;;;2.33;1.30;;;;;;;33.86;22.93;99916.38;7432078;19;20006;-49
2024/01/23 07:59:43;;;;;;;0.80;0.80;;;;;;;33.93;22.54;99901.66;7429412;19;20006;-49
2024/01/23 08:02:09;;;;;;;0.20;0.20;;;;;;;34.08;22.63;99898.16;7430761;19;20070;-49
2024/01/23 08:27:03;;;;;;;0.30;0.20;;;;;;;33.92;22.60;99873.34;7399204;19;20014;-51
2024/01/23 08:34:29;;;;;;;1.00;0.75;;;;;;;34.80;22.20;99854.97;7396907;19;20025;-51
2024/01/23 08:53:42;;;;;;;27.25;2.05;;;;;;;31.94;24.53;99826.41;7394419;19;20021;-50
2024/01/23 09:04:43;;;;;;;0.17;0.17;;;;;;;30.96;25.91;99786.28;7397020;19;20039;-50
2024/01/23 09:07:29;;;;;;;1.73;1.53;;;;;;;30.23;26.19;99777.78;7399611;19;20015;-51
2024/01/23 09:10:20;;;;;;;4.88;0.55;;;;;;;30.44;26.18;99769.16;7394546;19;20302;-50
2024/01/23 09:13:01;;;;;;;0.20;0.20;;;;;;;30.33;26.21;99764.88;7394552;19;20006;-51
2024/01/23 09:15:38;;;;;;;0.45;0.45;;;;;;;29.99;27.19;99748.16;7395397;19;20032;-51
2024/01/23 09:18:20;;;;;;;0.68;0.45;;;;;;;30.09;27.00;99745.19;7398313;19;20022;-51
2024/01/23 09:21:03;;;;;;;0.13;0.13;;;;;;;29.64;27.48;99730.66;7395739;19;20061;-51
2024/01/23 09:24:04;;;;;;;0.65;0.65;;;;;;;29.95;27.27;99728.50;7394408;19;20045;-51
2024/01/23 09:27:01;;;;;;;0.35;0.35;;;;;;;29.80;27.44;99720.28;7395589;19;20015;-51
2024/01/23 09:30:06;;;;;;;0.30;0.30;;;;;;;29.72;27.76;99713.97;7392440;19;20029;-51
2024/01/23 09:33:05;;;;;;;14.98;1.38;;;;;;;30.20;27.67;99701.41;7397310;19;20014;-51
2024/01/23 09:36:35;;;;;;;0.87;0.50;;;;;;;30.02;27.92;99683.72;7392153;19;20025;-51
2024/01/23 09:39:33;;;;;;;0.20;0.20;;;;;;;30.31;27.96;99657.66;7394729;19;20028;-51
2024/01/23 09:42:33;;;;;;;0.22;0.22;;;;;;;30.04;28.52;99657.28;7393652;19;20035;-51
2024/01/23 09:45:29;;;;;;;1.05;0.47;;;;;;;30.55;28.35;99648.50;7392249;19;20077;-51
2024/01/23 09:48:40;;;;;;;2.85;0.73;;;;;;;31.34;28.15;99634.06;7393237;19;20015;-52
2024/01/23 09:51:33;;;;;;;2.17;0.80;;;;;;;31.26;28.23;99627.06;7395643;19;20017;-51
2024/01/23 09:54:29;;;;;;;3.80;0.63;;;;;;;31.52;28.46;99616.44;7393762;19;20042;-51
2024/01/23 09:57:19;;;;;;;4.65;1.13;;;;;;;31.38;28.44;99607.69;7398008;19;20090;-51
2024/01/23 10:00:11;;;;;;;2.15;0.65;;;;;;;30.82;28.78;99596.25;7394013;19;20014;-50
2024/01/23 10:03:26;;;;;;;11.30;1.35;;;;;;;33.16;27.38;99581.88;7394624;19;20011;-51
2024/01/23 10:19:02;;;;;;;0.75;0.75;;;;;;;34.49;26.59;99530.78;7390970;19;20021;-51
2024/01/23 10:21:55;;;;;;;2.15;0.77;;;;;;;31.93;28.82;99526.00;7394306;19;20042;-51
2024/01/23 10:24:41;;;;;;;1.10;0.52;;;;;;;31.59;29.14;99503.13;7392699;19;20070;-51
2024/01/23 10:27:58;;;;;;;0.70;0.35;;;;;;;31.74;29.03;99497.56;7392748;19;20242;-51
2024/01/23 10:31:30;;;;;;;13.88;1.60;;;;;;;31.97;29.51;99488.06;7392539;19;20017;-51
2024/01/23 10:34:05;;;;;;;0.10;0.10;;;;;;;31.96;29.56;99483.69;7391980;19;20011;-51
2024/01/23 10:36:49;;;;;;;0.50;0.45;;;;;;;31.77;29.96;99469.63;7391124;19;20066;-51
2024/01/23 10:40:10;;;;;;;1.45;0.60;;;;;;;34.16;27.97;99464.91;7391447;19;20354;-50
2024/01/23 10:44:03;;;;;;;3.50;0.85;;;;;;;35.06;27.14;99442.25;7389135;19;20017;-51
2024/01/23 10:47:15;;;;;;;0.40;0.28;;;;;;;32.44;29.72;99440.25;7389686;19;20018;-50
2024/01/23 10:50:53;;;;;;;4.30;1.38;;;;;;;32.30;29.75;99430.81;7391861;19;20033;-50
2024/01/23 10:56:55;;;;;;;1.40;0.77;;;;;;;31.65;30.09;99419.97;7393736;19;20082;-55
2024/01/23 10:59:26;;;;;;;5.13;1.25;;;;;;;31.97;30.26;99410.25;7389398;19;20007;-55
2024/01/23 11:01:58;;;;;;;1.15;0.45;;;;;;;32.23;30.32;99385.75;7388867;19;20014;-55
2024/01/23 11:04:25;;;;;;;0.68;0.32;;;;;;;32.17;30.29;99396.97;7388205;19;20600;-55
2024/01/23 11:07:15;;;;;;;0.47;0.10;;;;;;;31.80;30.72;99387.69;7388022;19;20014;-55
2024/01/23 11:09:52;;;;;;;1.13;0.53;;;;;;;33.33;29.54;99395.81;7388409;19;20011;-55
2024/01/23 11:12:36;;;;;;;1.20;1.15;;;;;;;32.13;30.47;99405.41;7390709;19;20080;-56
2024/01/23 11:15:11;;;;;;;1.77;0.95;;;;;;;31.63;30.73;99376.66;7387136;19;20019;-56
2024/01/23 11:17:39;;;;;;;7.57;0.73;;;;;;;32.22;30.87;99367.00;7388581;19;20025;-56
2024/01/23 11:20:13;;;;;;;1.63;0.52;;;;;;;31.98;30.73;99382.97;7388600;19;20082;-56
2024/01/23 11:22:39;;;;;;;10.98;1.35;;;;;;;31.76;30.91;99361.53;7388349;19;20019;-56
2024/01/23 11:25:05;;;;;;;1.55;0.75;;;;;;;32.96;29.88;99361.50;7392323;19;20018;-56
2024/01/23 11:27:33;;;;;;;8.38;1.35;;;;;;;32.22;30.92;99354.69;7390044;19;20038;-56
2024/01/23 11:30:00;;;;;;;1.90;0.82;;;;;;;32.43;30.64;99331.31;7392379;19;20062;-56
2024/01/23 11:32:28;;;;;;;0.35;0.30;;;;;;;32.55;30.49;99312.53;7391976;19;20017;-56
2024/01/23 11:35:11;;;;;;;0.35;0.10;;;;;;;32.15;30.40;99319.06;7393751;19;20007;-56
2024/01/23 11:37:46;;;;;;;5.70;0.93;;;;;;;32.61;30.79;99312.09;7392417;19;20018;-56
2024/01/23 11:40:29;;;;;;;0.13;0.05;;;;;;;32.62;30.67;99299.91;7392594;19;20010;-56
2024/01/23 11:42:58;;;;;;;0.57;0.57;;;;;;;33.21;30.45;99271.09;7398274;19;20340;-56
2024/01/23 11:45:27;;;;;;;0.45;0.30;;;;;;;33.63;30.00;99264.47;7398815;19;20011;-56
2024/01/23 11:47:58;;;;;;;1.95;0.35;;;;;;;34.07;29.81;99260.69;7398718;19;20010;-56
2024/01/23 11:50:27;;;;;;;3.38;0.85;;;;;;;33.44;30.13;99250.56;7399884;19;20011;-55
2024/01/23 11:52:55;;;;;;;0.10;0.10;;;;;;;33.44;30.40;99253.44;7399950;19;20010;-56
2024/01/23 11:55:22;;;;;;;0.20;0.20;;;;;;;32.95;30.19;99238.03;7397907;19;20002;-56
2024/01/23 11:57:49;;;;;;;0.43;0.40;;;;;;;33.25;30.70;99230.88;7399078;19;20026;-56
2024/01/23 12:00:16;;;;;;;0.03;0.03;;;;;;;33.30;30.71;99215.22;7399162;19;20014;-56
2024/01/23 12:02:43;;;;;;;0.10;0.10;;;;;;;33.47;30.11;99200.88;7397925;19;20473;-56
2024/01/23 12:05:10;;;;;;;2.28;0.55;;;;;;;33.57;30.22;99206.41;7399068;19;20029;-56
2024/01/23 12:07:38;;;;;;;0.20;0.20;;;;;;;33.45;29.97;99208.72;7400816;19;20007;-56
2024/01/23 12:10:09;;;;;;;0.45;0.20;;;;;;;35.59;28.44;99189.53;7397313;19;20015;-55
2024/01/23 12:12:37;;;;;;;0.22;0.20;;;;;;;35.69;28.37;99198.59;7398924;19;20038;-55
2024/01/23 12:15:04;;;;;;;0.47;0.45;;;;;;;35.82;28.20;99197.63;7396777;19;20366;-55
2024/01/23 12:17:35;;;;;;;0.30;0.15;;;;;;;36.01;27.95;99181.66;7400889;19;20014;-55
2024/01/23 12:20:07;;;;;;;0.10;0.00;;;;;;;36.04;27.83;99165.81;7398138;19;20042;-55
2024/01/23 12:22:33;;;;;;;0.22;0.10;;;;;;;35.82;28.21;99151.25;7397704;19;20010;-55
2024/01/23 12:25:03;;;;;;;1.77;1.35;;;;;;;35.60;28.42;99159.91;7399620;19;20018;-55
2024/01/23 12:27:30;;;;;;;1.90;0.15;;;;;;;35.70;28.25;99139.97;7396900;19;20010;-55
2024/01/23 12:29:58;;;;;;;0.10;0.10;;;;;;;36.27;27.66;99139.06;7400551;19;20015;-55
2024/01/23 12:35:07;;;;;;;0.10;0.10;;;;;;;36.44;27.72;99144.00;7399105;19;20462;-56
2024/01/23 12:37:34;;;;;;;0.30;0.17;;;;;;;36.37;27.65;99153.88;7395093;19;20085;-55
2024/01/23 12:40:08;;;;;;;0.30;0.28;;;;;;;36.29;27.73;99113.75;7399224;19;20015;-55
2024/01/23 12:42:43;;;;;;;0.10;0.10;;;;;;;37.75;26.83;99104.41;7399240;19;20015;-55
2024/01/23 12:45:20;;;;;;;0.10;0.10;;;;;;;36.62;27.43;99092.38;7400644;19;20038;-55
2024/01/23 12:47:49;;;;;;;0.28;0.20;;;;;;;36.35;27.63;99090.00;7395203;19;20346;-55
2024/01/23 12:50:20;;;;;;;0.20;0.20;;;;;;;36.66;27.53;99092.47;7396980;19;20013;-55
2024/01/23 12:52:54;;;;;;;5.13;0.77;;;;;;;36.71;27.21;99076.66;7399598;19;20454;-57
2024/01/23 12:55:22;;;;;;;0.57;0.20;;;;;;;36.68;27.44;99089.66;7395185;19;20010;-56
2024/01/23 12:57:52;;;;;;;0.47;0.10;;;;;;;36.60;27.23;99089.41;7396319;19;20439;-57
2024/01/23 13:00:20;;;;;;;0.57;0.52;;;;;;;36.29;27.85;99072.41;7398040;19;20033;-56
2024/01/23 13:02:47;;;;;;;0.30;0.25;;;;;;;36.28;28.21;99071.66;7395036;19;20032;-56
2024/01/23 13:05:14;;;;;;;0.30;0.30;;;;;;;36.28;28.16;99065.13;7400521;19;20015;-56
2024/01/23 13:07:40;;;;;;;0.10;0.05;;;;;;;36.07;27.88;99062.97;7394961;19;20359;-57
2024/01/23 13:10:09;;;;;;;0.25;0.15;;;;;;;36.12;28.13;99047.22;7398303;19;20021;-56
2024/01/23 13:12:36;;;;;;;0.20;0.20;;;;;;;36.03;28.05;99063.59;7397847;19;20017;-56
2024/01/23 13:15:02;;;;;;;0.90;0.47;;;;;;;36.77;27.87;99068.16;7398308;19;20015;-56
2024/01/23 13:17:29;;;;;;;0.10;0.10;;;;;;;36.48;27.68;99052.03;7394612;19;20025;-56
2024/01/23 13:19:56;;;;;;;0.40;0.20;;;;;;;36.54;28.04;99036.97;7398882;19;20015;-56
2024/01/23 13:22:22;;;;;;;0.10;0.00;;;;;;;36.44;28.21;99031.59;7395332;19;20014;-56
2024/01/23 13:24:49;;;;;;;0.57;0.43;;;;;;;36.68;27.65;99046.09;7396989;19;20359;-56
2024/01/23 13:27:15;;;;;;;0.32;0.25;;;;;;;37.47;27.27;99025.19;7394194;19;20025;-56
2024/01/23 13:29:42;;;;;;;1.55;0.20;;;;;;;37.89;27.03;99023.38;7397704;19;20074;-56
2024/01/23 13:32:08;;;;;;;0.88;0.80;;;;;;;38.14;26.90;99007.97;7394207;19;20014;-56